sensor_id;sensor_type;location;lat;lon;timestamp;P1;durP1;ratioP1;P2;durP2;ratioP2
21729;SDS011;11027;51.030;13.812;2024-01-30T00:01:39;28.70;;;15.05;;
21729;SDS011;11027;51.030;13.812;2024-01-30T00:04:04;26.35;;;15.15;;
21729;SDS011;11027;51.030;13.812;2024-01-30T00:06:30;25.45;;;15.65;;
21729;SDS011;11027;51.030;13.812;2024-01-30T00:08:56;25.08;;;14.80;;
21729;SDS011;11027;51.030;13.812;2024-01-30T00:11:21;24.20;;;14.98;;
21729;SDS011;11027;51.030;13.812;2024-01-30T00:13:47;25.73;;;15.13;;
21729;SDS011;11027;51.030;13.812;2024-01-30T00:16:21;28.25;;;14.50;;
21729;SDS011;11027;51.030;13.812;2024-01-30T00:18:49;26.02;;;14.82;;
21729;SDS011;11027;51.030;13.812;2024-01-30T00:21:17;25.83;;;14.95;;
21729;SDS011;11027;51.030;13.812;2024-01-30T00:23:43;26.75;;;15.23;;
21729;SDS011;11027;51.030;13.812;2024-01-30T00:26:08;26.73;;;15.93;;
21729;SDS011;11027;51.030;13.812;2024-01-30T00:28:33;25.48;;;14.55;;
21729;SDS011;11027;51.030;13.812;2024-01-30T00:30:58;26.00;;;15.10;;
21729;SDS011;11027;51.030;13.812;2024-01-30T00:33:24;22.67;;;14.43;;
21729;SDS011;11027;51.030;13.812;2024-01-30T00:35:49;26.52;;;14.75;;
21729;SDS011;11027;51.030;13.812;2024-01-30T00:38:14;27.23;;;15.13;;
21729;SDS011;11027;51.030;13.812;2024-01-30T00:40:39;26.30;;;14.73;;
21729;SDS011;11027;51.030;13.812;2024-01-30T00:43:05;26.85;;;14.10;;
21729;SDS011;11027;51.030;13.812;2024-01-30T00:45:30;24.98;;;14.38;;
21729;SDS011;11027;51.030;13.812;2024-01-30T00:47:56;25.08;;;14.23;;
21729;SDS011;11027;51.030;13.812;2024-01-30T00:50:21;24.80;;;15.00;;
21729;SDS011;11027;51.030;13.812;2024-01-30T00:52:46;23.60;;;14.52;;
21729;SDS011;11027;51.030;13.812;2024-01-30T00:55:12;26.42;;;14.13;;
21729;SDS011;11027;51.030;13.812;2024-01-30T00:57:37;23.55;;;13.57;;
21729;SDS011;11027;51.030;13.812;2024-01-30T01:00:03;24.42;;;13.90;;
21729;SDS011;11027;51.030;13.812;2024-01-30T01:02:31;25.42;;;14.25;;
21729;SDS011;11027;51.030;13.812;2024-01-30T01:04:56;25.70;;;14.20;;
21729;SDS011;11027;51.030;13.812;2024-01-30T01:07:21;24.10;;;13.80;;
21729;SDS011;11027;51.030;13.812;2024-01-30T01:09:46;21.98;;;12.75;;
21729;SDS011;11027;51.030;13.812;2024-01-30T01:12:12;28.38;;;14.50;;
21729;SDS011;11027;51.030;13.812;2024-01-30T01:14:38;23.27;;;13.30;;
21729;SDS011;11027;51.030;13.812;2024-01-30T01:17:03;25.02;;;14.30;;
21729;SDS011;11027;51.030;13.812;2024-01-30T01:19:28;22.33;;;13.50;;
21729;SDS011;11027;51.030;13.812;2024-01-30T01:21:53;23.48;;;13.13;;
21729;SDS011;11027;51.030;13.812;2024-01-30T01:24:19;24.75;;;13.57;;
21729;SDS011;11027;51.030;13.812;2024-01-30T01:26:44;23.80;;;13.50;;
21729;SDS011;11027;51.030;13.812;2024-01-30T01:29:09;23.60;;;14.02;;
21729;SDS011;11027;51.030;13.812;2024-01-30T01:31:36;22.25;;;13.55;;
21729;SDS011;11027;51.030;13.812;2024-01-30T01:34:08;24.83;;;13.60;;
21729;SDS011;11027;51.030;13.812;2024-01-30T01:36:34;26.02;;;13.57;;
21729;SDS011;11027;51.030;13.812;2024-01-30T01:38:59;23.50;;;13.40;;
21729;SDS011;11027;51.030;13.812;2024-01-30T01:41:24;26.85;;;14.82;;
21729;SDS011;11027;51.030;13.812;2024-01-30T01:43:49;20.98;;;13.73;;
21729;SDS011;11027;51.030;13.812;2024-01-30T01:46:15;22.40;;;13.50;;
21729;SDS011;11027;51.030;13.812;2024-01-30T01:48:40;23.00;;;13.38;;
21729;SDS011;11027;51.030;13.812;2024-01-30T01:51:07;23.95;;;14.05;;
21729;SDS011;11027;51.030;13.812;2024-01-30T01:53:34;24.08;;;13.75;;
21729;SDS011;11027;51.030;13.812;2024-01-30T01:56:00;25.17;;;13.85;;
21729;SDS011;11027;51.030;13.812;2024-01-30T01:58:25;24.02;;;14.13;;
21729;SDS011;11027;51.030;13.812;2024-01-30T02:00:53;23.45;;;13.70;;
21729;SDS011;11027;51.030;13.812;2024-01-30T02:03:19;22.35;;;13.02;;
21729;SDS011;11027;51.030;13.812;2024-01-30T02:05:46;22.35;;;14.05;;
21729;SDS011;11027;51.030;13.812;2024-01-30T02:08:11;25.58;;;13.70;;
21729;SDS011;11027;51.030;13.812;2024-01-30T02:10:37;22.95;;;13.25;;
21729;SDS011;11027;51.030;13.812;2024-01-30T02:13:02;24.48;;;13.88;;
21729;SDS011;11027;51.030;13.812;2024-01-30T02:15:28;22.90;;;14.05;;
21729;SDS011;11027;51.030;13.812;2024-01-30T02:17:54;23.30;;;14.25;;
21729;SDS011;11027;51.030;13.812;2024-01-30T02:20:19;24.27;;;13.85;;
21729;SDS011;11027;51.030;13.812;2024-01-30T02:22:45;24.05;;;13.38;;
21729;SDS011;11027;51.030;13.812;2024-01-30T02:25:11;24.83;;;13.75;;
21729;SDS011;11027;51.030;13.812;2024-01-30T02:27:36;25.30;;;14.40;;
21729;SDS011;11027;51.030;13.812;2024-01-30T02:30:01;25.67;;;14.32;;
21729;SDS011;11027;51.030;13.812;2024-01-30T02:32:27;26.00;;;13.80;;
21729;SDS011;11027;51.030;13.812;2024-01-30T02:34:52;27.05;;;14.25;;
21729;SDS011;11027;51.030;13.812;2024-01-30T02:37:17;25.45;;;13.57;;
21729;SDS011;11027;51.030;13.812;2024-01-30T02:39:43;25.02;;;14.73;;
21729;SDS011;11027;51.030;13.812;2024-01-30T02:42:08;23.60;;;14.43;;
21729;SDS011;11027;51.030;13.812;2024-01-30T02:44:33;22.27;;;14.10;;
21729;SDS011;11027;51.030;13.812;2024-01-30T02:46:58;24.02;;;14.63;;
21729;SDS011;11027;51.030;13.812;2024-01-30T02:49:24;25.98;;;14.27;;
21729;SDS011;11027;51.030;13.812;2024-01-30T02:51:49;25.52;;;14.65;;
21729;SDS011;11027;51.030;13.812;2024-01-30T02:54:14;23.33;;;13.82;;
21729;SDS011;11027;51.030;13.812;2024-01-30T02:56:39;26.98;;;15.50;;
21729;SDS011;11027;51.030;13.812;2024-01-30T02:59:05;24.27;;;14.35;;
21729;SDS011;11027;51.030;13.812;2024-01-30T03:01:30;24.63;;;14.70;;
21729;SDS011;11027;51.030;13.812;2024-01-30T03:03:56;27.50;;;14.95;;
21729;SDS011;11027;51.030;13.812;2024-01-30T03:06:22;28.17;;;14.88;;
21729;SDS011;11027;51.030;13.812;2024-01-30T03:08:47;26.50;;;14.95;;
21729;SDS011;11027;51.030;13.812;2024-01-30T03:11:13;26.67;;;14.73;;
21729;SDS011;11027;51.030;13.812;2024-01-30T03:13:38;27.83;;;14.55;;
21729;SDS011;11027;51.030;13.812;2024-01-30T03:16:03;27.00;;;14.77;;
21729;SDS011;11027;51.030;13.812;2024-01-30T03:18:29;28.48;;;15.73;;
21729;SDS011;11027;51.030;13.812;2024-01-30T03:20:54;26.35;;;15.23;;
21729;SDS011;11027;51.030;13.812;2024-01-30T03:23:19;28.45;;;15.65;;
21729;SDS011;11027;51.030;13.812;2024-01-30T03:25:45;29.05;;;16.33;;
21729;SDS011;11027;51.030;13.812;2024-01-30T03:28:10;27.10;;;15.15;;
21729;SDS011;11027;51.030;13.812;2024-01-30T03:30:35;28.85;;;15.10;;
21729;SDS011;11027;51.030;13.812;2024-01-30T03:33:01;24.05;;;14.88;;
21729;SDS011;11027;51.030;13.812;2024-01-30T03:35:26;27.55;;;15.27;;
21729;SDS011;11027;51.030;13.812;2024-01-30T03:37:51;26.02;;;15.63;;
21729;SDS011;11027;51.030;13.812;2024-01-30T03:40:17;29.55;;;15.68;;
21729;SDS011;11027;51.030;13.812;2024-01-30T03:42:42;25.38;;;14.88;;
21729;SDS011;11027;51.030;13.812;2024-01-30T03:45:07;25.42;;;14.90;;
21729;SDS011;11027;51.030;13.812;2024-01-30T03:47:33;27.85;;;15.25;;
21729;SDS011;11027;51.030;13.812;2024-01-30T03:49:58;26.02;;;14.48;;
21729;SDS011;11027;51.030;13.812;2024-01-30T03:52:23;26.23;;;14.02;;
21729;SDS011;11027;51.030;13.812;2024-01-30T03:54:49;27.73;;;13.93;;
21729;SDS011;11027;51.030;13.812;2024-01-30T03:57:14;24.92;;;13.75;;
21729;SDS011;11027;51.030;13.812;2024-01-30T03:59:41;28.67;;;15.23;;
21729;SDS011;11027;51.030;13.812;2024-01-30T04:02:07;25.27;;;14.38;;
21729;SDS011;11027;51.030;13.812;2024-01-30T04:04:32;27.30;;;14.65;;
21729;SDS011;11027;51.030;13.812;2024-01-30T04:06:57;25.95;;;14.45;;
21729;SDS011;11027;51.030;13.812;2024-01-30T04:09:23;26.65;;;14.82;;
21729;SDS011;11027;51.030;13.812;2024-01-30T04:11:48;23.75;;;14.23;;
21729;SDS011;11027;51.030;13.812;2024-01-30T04:14:13;24.58;;;14.25;;
21729;SDS011;11027;51.030;13.812;2024-01-30T04:16:38;25.10;;;14.52;;
21729;SDS011;11027;51.030;13.812;2024-01-30T04:19:04;25.63;;;14.70;;
21729;SDS011;11027;51.030;13.812;2024-01-30T04:21:29;24.90;;;14.57;;
21729;SDS011;11027;51.030;13.812;2024-01-30T04:23:54;26.77;;;13.93;;
21729;SDS011;11027;51.030;13.812;2024-01-30T04:26:19;25.80;;;14.88;;
21729;SDS011;11027;51.030;13.812;2024-01-30T04:28:45;24.35;;;13.98;;
21729;SDS011;11027;51.030;13.812;2024-01-30T04:31:10;22.77;;;14.65;;
21729;SDS011;11027;51.030;13.812;2024-01-30T04:33:36;22.58;;;14.23;;
21729;SDS011;11027;51.030;13.812;2024-01-30T04:36:01;25.65;;;14.00;;
21729;SDS011;11027;51.030;13.812;2024-01-30T04:38:26;26.27;;;14.40;;
21729;SDS011;11027;51.030;13.812;2024-01-30T04:40:51;25.38;;;14.35;;
21729;SDS011;11027;51.030;13.812;2024-01-30T04:43:17;23.17;;;13.70;;
21729;SDS011;11027;51.030;13.812;2024-01-30T04:45:42;30.63;;;15.23;;
21729;SDS011;11027;51.030;13.812;2024-01-30T04:48:07;25.48;;;14.57;;
21729;SDS011;11027;51.030;13.812;2024-01-30T04:50:32;27.02;;;14.80;;
21729;SDS011;11027;51.030;13.812;2024-01-30T04:52:58;28.55;;;14.48;;
21729;SDS011;11027;51.030;13.812;2024-01-30T04:55:23;27.08;;;14.57;;
21729;SDS011;11027;51.030;13.812;2024-01-30T04:57:48;26.02;;;14.77;;
21729;SDS011;11027;51.030;13.812;2024-01-30T05:00:14;27.33;;;15.63;;
21729;SDS011;11027;51.030;13.812;2024-01-30T05:02:40;25.10;;;14.98;;
21729;SDS011;11027;51.030;13.812;2024-01-30T05:05:05;25.90;;;14.75;;
21729;SDS011;11027;51.030;13.812;2024-01-30T05:07:30;25.30;;;14.70;;
21729;SDS011;11027;51.030;13.812;2024-01-30T05:09:56;27.67;;;14.93;;
21729;SDS011;11027;51.030;13.812;2024-01-30T05:12:21;25.27;;;14.90;;
21729;SDS011;11027;51.030;13.812;2024-01-30T05:14:46;29.77;;;14.95;;
21729;SDS011;11027;51.030;13.812;2024-01-30T05:17:12;25.98;;;15.10;;
21729;SDS011;11027;51.030;13.812;2024-01-30T05:19:37;27.88;;;15.45;;
21729;SDS011;11027;51.030;13.812;2024-01-30T05:22:03;28.92;;;15.10;;
21729;SDS011;11027;51.030;13.812;2024-01-30T05:24:28;34.90;;;15.38;;
21729;SDS011;11027;51.030;13.812;2024-01-30T05:26:53;25.15;;;14.95;;
21729;SDS011;11027;51.030;13.812;2024-01-30T05:29:19;24.83;;;14.23;;
21729;SDS011;11027;51.030;13.812;2024-01-30T05:31:44;28.77;;;15.18;;
21729;SDS011;11027;51.030;13.812;2024-01-30T05:34:09;25.20;;;14.13;;
21729;SDS011;11027;51.030;13.812;2024-01-30T05:36:35;28.05;;;14.52;;
21729;SDS011;11027;51.030;13.812;2024-01-30T05:39:00;25.67;;;13.82;;
21729;SDS011;11027;51.030;13.812;2024-01-30T05:41:25;25.17;;;14.50;;
21729;SDS011;11027;51.030;13.812;2024-01-30T05:43:51;25.10;;;14.55;;
21729;SDS011;11027;51.030;13.812;2024-01-30T05:46:16;26.88;;;15.05;;
21729;SDS011;11027;51.030;13.812;2024-01-30T05:48:41;24.35;;;14.60;;
21729;SDS011;11027;51.030;13.812;2024-01-30T05:51:07;27.70;;;15.68;;
21729;SDS011;11027;51.030;13.812;2024-01-30T05:53:33;26.05;;;15.63;;
21729;SDS011;11027;51.030;13.812;2024-01-30T05:55:59;28.40;;;15.20;;
21729;SDS011;11027;51.030;13.812;2024-01-30T05:58:26;27.08;;;14.23;;
21729;SDS011;11027;51.030;13.812;2024-01-30T06:00:51;29.52;;;15.80;;
21729;SDS011;11027;51.030;13.812;2024-01-30T06:03:17;27.90;;;15.85;;
21729;SDS011;11027;51.030;13.812;2024-01-30T06:05:42;31.38;;;15.15;;
21729;SDS011;11027;51.030;13.812;2024-01-30T06:08:07;29.33;;;15.35;;
21729;SDS011;11027;51.030;13.812;2024-01-30T06:10:32;26.40;;;15.23;;
21729;SDS011;11027;51.030;13.812;2024-01-30T06:12:58;28.40;;;16.13;;
21729;SDS011;11027;51.030;13.812;2024-01-30T06:15:23;25.35;;;13.48;;
21729;SDS011;11027;51.030;13.812;2024-01-30T06:17:48;23.40;;;14.05;;
21729;SDS011;11027;51.030;13.812;2024-01-30T06:20:13;26.80;;;14.80;;
21729;SDS011;11027;51.030;13.812;2024-01-30T06:22:38;30.08;;;15.38;;
21729;SDS011;11027;51.030;13.812;2024-01-30T06:25:04;27.83;;;14.00;;
21729;SDS011;11027;51.030;13.812;2024-01-30T06:27:29;26.23;;;15.40;;
21729;SDS011;11027;51.030;13.812;2024-01-30T06:29:55;28.63;;;14.77;;
21729;SDS011;11027;51.030;13.812;2024-01-30T06:32:20;26.00;;;14.95;;
21729;SDS011;11027;51.030;13.812;2024-01-30T06:34:45;28.35;;;15.20;;
21729;SDS011;11027;51.030;13.812;2024-01-30T06:37:10;28.52;;;14.93;;
21729;SDS011;11027;51.030;13.812;2024-01-30T06:39:36;28.15;;;14.93;;
21729;SDS011;11027;51.030;13.812;2024-01-30T06:42:01;29.88;;;13.85;;
21729;SDS011;11027;51.030;13.812;2024-01-30T06:44:26;25.33;;;14.18;;
21729;SDS011;11027;51.030;13.812;2024-01-30T06:46:51;28.52;;;14.20;;
21729;SDS011;11027;51.030;13.812;2024-01-30T06:49:17;26.45;;;15.57;;
21729;SDS011;11027;51.030;13.812;2024-01-30T06:51:42;27.10;;;14.25;;
21729;SDS011;11027;51.030;13.812;2024-01-30T06:54:07;32.63;;;14.55;;
21729;SDS011;11027;51.030;13.812;2024-01-30T06:56:33;31.15;;;14.15;;
21729;SDS011;11027;51.030;13.812;2024-01-30T06:58:59;25.25;;;13.80;;
21729;SDS011;11027;51.030;13.812;2024-01-30T07:01:28;24.67;;;13.20;;
21729;SDS011;11027;51.030;13.812;2024-01-30T07:03:54;26.15;;;14.38;;
21729;SDS011;11027;51.030;13.812;2024-01-30T07:06:19;24.33;;;13.68;;
21729;SDS011;11027;51.030;13.812;2024-01-30T07:08:45;26.15;;;14.82;;
21729;SDS011;11027;51.030;13.812;2024-01-30T07:11:10;27.00;;;15.00;;
21729;SDS011;11027;51.030;13.812;2024-01-30T07:13:37;24.00;;;13.52;;
21729;SDS011;11027;51.030;13.812;2024-01-30T07:16:02;25.52;;;15.13;;
21729;SDS011;11027;51.030;13.812;2024-01-30T07:18:28;26.67;;;14.98;;
21729;SDS011;11027;51.030;13.812;2024-01-30T07:20:53;24.15;;;14.02;;
21729;SDS011;11027;51.030;13.812;2024-01-30T07:23:18;31.75;;;15.18;;
21729;SDS011;11027;51.030;13.812;2024-01-30T07:25:44;26.65;;;14.18;;
21729;SDS011;11027;51.030;13.812;2024-01-30T07:28:10;24.67;;;13.63;;
21729;SDS011;11027;51.030;13.812;2024-01-30T07:30:36;23.60;;;13.35;;
21729;SDS011;11027;51.030;13.812;2024-01-30T07:33:01;24.23;;;14.00;;
21729;SDS011;11027;51.030;13.812;2024-01-30T07:35:26;24.02;;;14.30;;
21729;SDS011;11027;51.030;13.812;2024-01-30T07:37:52;27.40;;;14.02;;
21729;SDS011;11027;51.030;13.812;2024-01-30T07:40:17;25.33;;;13.60;;
21729;SDS011;11027;51.030;13.812;2024-01-30T07:42:42;25.10;;;14.50;;
21729;SDS011;11027;51.030;13.812;2024-01-30T07:45:08;26.63;;;14.13;;
21729;SDS011;11027;51.030;13.812;2024-01-30T07:47:33;22.33;;;13.93;;
21729;SDS011;11027;51.030;13.812;2024-01-30T07:49:58;27.23;;;13.02;;
21729;SDS011;11027;51.030;13.812;2024-01-30T07:52:24;25.42;;;14.07;;
21729;SDS011;11027;51.030;13.812;2024-01-30T07:54:49;22.38;;;14.13;;
21729;SDS011;11027;51.030;13.812;2024-01-30T07:57:15;23.27;;;14.38;;
21729;SDS011;11027;51.030;13.812;2024-01-30T07:59:42;26.70;;;13.88;;
21729;SDS011;11027;51.030;13.812;2024-01-30T08:02:09;26.75;;;14.32;;
21729;SDS011;11027;51.030;13.812;2024-01-30T08:04:34;29.65;;;14.07;;
21729;SDS011;11027;51.030;13.812;2024-01-30T08:07:00;22.17;;;13.07;;
21729;SDS011;11027;51.030;13.812;2024-01-30T08:09:25;26.38;;;13.95;;
21729;SDS011;11027;51.030;13.812;2024-01-30T08:11:50;22.85;;;13.55;;
21729;SDS011;11027;51.030;13.812;2024-01-30T08:14:16;24.95;;;14.38;;
21729;SDS011;11027;51.030;13.812;2024-01-30T08:16:41;25.73;;;13.85;;
21729;SDS011;11027;51.030;13.812;2024-01-30T08:19:06;22.08;;;13.65;;
21729;SDS011;11027;51.030;13.812;2024-01-30T08:21:32;25.15;;;13.77;;
21729;SDS011;11027;51.030;13.812;2024-01-30T08:24:01;22.73;;;13.18;;
21729;SDS011;11027;51.030;13.812;2024-01-30T08:26:28;22.17;;;13.85;;
21729;SDS011;11027;51.030;13.812;2024-01-30T08:28:53;20.63;;;13.68;;
21729;SDS011;11027;51.030;13.812;2024-01-30T08:31:19;24.05;;;13.30;;
21729;SDS011;11027;51.030;13.812;2024-01-30T08:33:44;20.80;;;13.20;;
21729;SDS011;11027;51.030;13.812;2024-01-30T08:36:09;20.45;;;13.38;;
21729;SDS011;11027;51.030;13.812;2024-01-30T08:38:34;26.65;;;14.18;;
21729;SDS011;11027;51.030;13.812;2024-01-30T08:41:00;23.75;;;12.93;;
21729;SDS011;11027;51.030;13.812;2024-01-30T08:43:25;25.42;;;13.38;;
21729;SDS011;11027;51.030;13.812;2024-01-30T08:45:50;25.20;;;13.65;;
21729;SDS011;11027;51.030;13.812;2024-01-30T08:48:16;21.23;;;12.65;;
21729;SDS011;11027;51.030;13.812;2024-01-30T08:50:42;22.00;;;13.10;;
21729;SDS011;11027;51.030;13.812;2024-01-30T08:53:07;23.83;;;13.88;;
21729;SDS011;11027;51.030;13.812;2024-01-30T08:55:33;25.98;;;13.77;;
21729;SDS011;11027;51.030;13.812;2024-01-30T08:57:58;21.73;;;12.77;;
21729;SDS011;11027;51.030;13.812;2024-01-30T09:00:24;21.88;;;12.80;;
21729;SDS011;11027;51.030;13.812;2024-01-30T09:02:49;22.42;;;11.93;;
21729;SDS011;11027;51.030;13.812;2024-01-30T09:05:14;23.95;;;13.93;;
21729;SDS011;11027;51.030;13.812;2024-01-30T09:07:40;22.63;;;12.85;;
21729;SDS011;11027;51.030;13.812;2024-01-30T09:10:05;21.98;;;12.82;;
21729;SDS011;11027;51.030;13.812;2024-01-30T09:12:31;21.20;;;12.75;;
21729;SDS011;11027;51.030;13.812;2024-01-30T09:14:56;28.40;;;13.60;;
21729;SDS011;11027;51.030;13.812;2024-01-30T09:17:21;21.77;;;12.90;;
21729;SDS011;11027;51.030;13.812;2024-01-30T09:19:47;24.23;;;13.15;;
21729;SDS011;11027;51.030;13.812;2024-01-30T09:22:12;24.40;;;13.35;;
21729;SDS011;11027;51.030;13.812;2024-01-30T09:24:37;21.60;;;13.35;;
21729;SDS011;11027;51.030;13.812;2024-01-30T09:27:03;22.20;;;12.65;;
21729;SDS011;11027;51.030;13.812;2024-01-30T09:29:28;23.83;;;13.25;;
21729;SDS011;11027;51.030;13.812;2024-01-30T09:31:53;25.08;;;12.40;;
21729;SDS011;11027;51.030;13.812;2024-01-30T09:34:19;25.27;;;13.82;;
21729;SDS011;11027;51.030;13.812;2024-01-30T09:36:44;24.70;;;13.60;;
21729;SDS011;11027;51.030;13.812;2024-01-30T09:39:09;23.90;;;13.15;;
21729;SDS011;11027;51.030;13.812;2024-01-30T09:41:45;23.75;;;13.35;;
21729;SDS011;11027;51.030;13.812;2024-01-30T09:44:13;24.25;;;13.48;;
21729;SDS011;11027;51.030;13.812;2024-01-30T09:46:41;22.48;;;12.57;;
21729;SDS011;11027;51.030;13.812;2024-01-30T09:49:08;23.23;;;13.60;;
21729;SDS011;11027;51.030;13.812;2024-01-30T09:51:34;21.00;;;13.00;;
21729;SDS011;11027;51.030;13.812;2024-01-30T09:54:01;22.30;;;12.07;;
21729;SDS011;11027;51.030;13.812;2024-01-30T09:56:27;22.48;;;11.82;;
21729;SDS011;11027;51.030;13.812;2024-01-30T09:58:53;21.10;;;12.45;;
21729;SDS011;11027;51.030;13.812;2024-01-30T10:01:18;24.70;;;13.05;;
21729;SDS011;11027;51.030;13.812;2024-01-30T10:03:44;23.35;;;13.10;;
21729;SDS011;11027;51.030;13.812;2024-01-30T10:06:10;23.00;;;12.73;;
21729;SDS011;11027;51.030;13.812;2024-01-30T10:08:36;20.33;;;12.40;;
21729;SDS011;11027;51.030;13.812;2024-01-30T10:11:01;21.65;;;12.82;;
21729;SDS011;11027;51.030;13.812;2024-01-30T10:13:28;21.45;;;13.27;;
21729;SDS011;11027;51.030;13.812;2024-01-30T10:15:53;28.45;;;12.45;;
21729;SDS011;11027;51.030;13.812;2024-01-30T10:18:19;25.38;;;13.02;;
21729;SDS011;11027;51.030;13.812;2024-01-30T10:20:45;19.10;;;11.43;;
21729;SDS011;11027;51.030;13.812;2024-01-30T10:23:11;21.15;;;12.27;;
21729;SDS011;11027;51.030;13.812;2024-01-30T10:25:36;21.55;;;13.23;;
21729;SDS011;11027;51.030;13.812;2024-01-30T10:28:03;20.38;;;12.00;;
21729;SDS011;11027;51.030;13.812;2024-01-30T10:30:28;20.75;;;12.23;;
21729;SDS011;11027;51.030;13.812;2024-01-30T10:32:53;18.38;;;11.30;;
21729;SDS011;11027;51.030;13.812;2024-01-30T10:35:19;22.73;;;12.07;;
21729;SDS011;11027;51.030;13.812;2024-01-30T10:37:44;23.80;;;13.13;;
21729;SDS011;11027;51.030;13.812;2024-01-30T10:40:12;21.92;;;11.10;;
21729;SDS011;11027;51.030;13.812;2024-01-30T10:42:39;18.50;;;10.98;;
21729;SDS011;11027;51.030;13.812;2024-01-30T10:47:34;21.38;;;10.02;;
21729;SDS011;11027;51.030;13.812;2024-01-30T10:50:01;19.85;;;11.27;;
21729;SDS011;11027;51.030;13.812;2024-01-30T10:52:28;22.92;;;11.07;;
21729;SDS011;11027;51.030;13.812;2024-01-30T10:54:55;17.88;;;11.55;;
21729;SDS011;11027;51.030;13.812;2024-01-30T10:57:22;19.98;;;11.02;;
21729;SDS011;11027;51.030;13.812;2024-01-30T10:59:49;18.95;;;10.55;;
21729;SDS011;11027;51.030;13.812;2024-01-30T11:02:17;17.95;;;10.93;;
21729;SDS011;11027;51.030;13.812;2024-01-30T11:04:43;25.90;;;11.20;;
21729;SDS011;11027;51.030;13.812;2024-01-30T11:07:18;18.75;;;10.57;;
21729;SDS011;11027;51.030;13.812;2024-01-30T11:09:51;20.52;;;11.30;;
21729;SDS011;11027;51.030;13.812;2024-01-30T11:12:24;21.60;;;11.60;;
21729;SDS011;11027;51.030;13.812;2024-01-30T11:15:06;16.63;;;11.00;;
21729;SDS011;11027;51.030;13.812;2024-01-30T11:20:14;20.30;;;11.90;;
21729;SDS011;11027;51.030;13.812;2024-01-30T11:22:46;16.65;;;10.88;;
21729;SDS011;11027;51.030;13.812;2024-01-30T11:25:15;19.35;;;12.18;;
21729;SDS011;11027;51.030;13.812;2024-01-30T11:27:42;18.92;;;10.98;;
21729;SDS011;11027;51.030;13.812;2024-01-30T11:30:08;19.13;;;10.90;;
21729;SDS011;11027;51.030;13.812;2024-01-30T11:32:34;18.45;;;11.88;;
21729;SDS011;11027;51.030;13.812;2024-01-30T11:34:59;20.83;;;11.90;;
21729;SDS011;11027;51.030;13.812;2024-01-30T11:37:25;21.02;;;11.48;;
21729;SDS011;11027;51.030;13.812;2024-01-30T11:39:53;18.95;;;11.80;;
21729;SDS011;11027;51.030;13.812;2024-01-30T11:42:19;19.33;;;11.35;;
21729;SDS011;11027;51.030;13.812;2024-01-30T11:44:48;20.77;;;12.00;;
21729;SDS011;11027;51.030;13.812;2024-01-30T11:47:13;22.25;;;12.35;;
21729;SDS011;11027;51.030;13.812;2024-01-30T11:49:39;23.60;;;12.30;;
21729;SDS011;11027;51.030;13.812;2024-01-30T11:52:05;23.33;;;12.73;;
21729;SDS011;11027;51.030;13.812;2024-01-30T11:54:30;22.30;;;13.88;;
21729;SDS011;11027;51.030;13.812;2024-01-30T11:56:55;24.83;;;13.25;;
21729;SDS011;11027;51.030;13.812;2024-01-30T11:59:21;20.70;;;12.40;;
21729;SDS011;11027;51.030;13.812;2024-01-30T12:01:46;24.40;;;14.20;;
21729;SDS011;11027;51.030;13.812;2024-01-30T12:04:12;21.40;;;12.43;;
21729;SDS011;11027;51.030;13.812;2024-01-30T12:06:37;23.77;;;13.43;;
21729;SDS011;11027;51.030;13.812;2024-01-30T12:09:03;24.25;;;13.43;;
21729;SDS011;11027;51.030;13.812;2024-01-30T12:11:29;21.40;;;13.15;;
21729;SDS011;11027;51.030;13.812;2024-01-30T12:13:55;21.65;;;12.27;;
21729;SDS011;11027;51.030;13.812;2024-01-30T12:16:21;23.80;;;13.07;;
21729;SDS011;11027;51.030;13.812;2024-01-30T12:18:46;25.30;;;14.23;;
21729;SDS011;11027;51.030;13.812;2024-01-30T12:21:12;24.05;;;14.27;;
21729;SDS011;11027;51.030;13.812;2024-01-30T12:23:37;22.08;;;13.35;;
21729;SDS011;11027;51.030;13.812;2024-01-30T12:26:03;23.45;;;13.80;;
21729;SDS011;11027;51.030;13.812;2024-01-30T12:28:31;21.30;;;12.55;;
21729;SDS011;11027;51.030;13.812;2024-01-30T12:30:56;22.23;;;13.43;;
21729;SDS011;11027;51.030;13.812;2024-01-30T12:33:26;27.13;;;14.35;;
21729;SDS011;11027;51.030;13.812;2024-01-30T12:35:53;24.25;;;14.07;;
21729;SDS011;11027;51.030;13.812;2024-01-30T12:38:18;24.40;;;14.05;;
21729;SDS011;11027;51.030;13.812;2024-01-30T12:40:43;22.80;;;13.45;;
21729;SDS011;11027;51.030;13.812;2024-01-30T12:43:09;25.88;;;14.32;;
21729;SDS011;11027;51.030;13.812;2024-01-30T12:45:35;25.02;;;14.88;;
21729;SDS011;11027;51.030;13.812;2024-01-30T12:48:01;22.35;;;13.45;;
21729;SDS011;11027;51.030;13.812;2024-01-30T12:50:27;24.48;;;13.98;;
21729;SDS011;11027;51.030;13.812;2024-01-30T12:52:52;24.67;;;13.60;;
21729;SDS011;11027;51.030;13.812;2024-01-30T12:55:17;26.58;;;14.52;;
21729;SDS011;11027;51.030;13.812;2024-01-30T12:57:43;23.33;;;14.43;;
21729;SDS011;11027;51.030;13.812;2024-01-30T13:00:08;23.02;;;13.45;;
21729;SDS011;11027;51.030;13.812;2024-01-30T13:02:34;24.48;;;14.43;;
21729;SDS011;11027;51.030;13.812;2024-01-30T13:05:02;24.73;;;14.55;;
21729;SDS011;11027;51.030;13.812;2024-01-30T13:07:27;25.00;;;15.07;;
21729;SDS011;11027;51.030;13.812;2024-01-30T13:09:53;24.05;;;13.93;;
21729;SDS011;11027;51.030;13.812;2024-01-30T13:12:18;26.77;;;14.55;;
21729;SDS011;11027;51.030;13.812;2024-01-30T13:14:43;24.77;;;14.27;;
21729;SDS011;11027;51.030;13.812;2024-01-30T13:17:08;24.08;;;13.95;;
21729;SDS011;11027;51.030;13.812;2024-01-30T13:19:34;24.15;;;14.38;;
21729;SDS011;11027;51.030;13.812;2024-01-30T13:21:59;24.65;;;13.65;;
21729;SDS011;11027;51.030;13.812;2024-01-30T13:24:24;23.25;;;13.60;;
21729;SDS011;11027;51.030;13.812;2024-01-30T13:26:50;23.42;;;14.00;;
21729;SDS011;11027;51.030;13.812;2024-01-30T13:29:15;25.40;;;14.77;;
21729;SDS011;11027;51.030;13.812;2024-01-30T13:31:40;22.60;;;14.30;;
21729;SDS011;11027;51.030;13.812;2024-01-30T13:34:06;23.38;;;14.65;;
21729;SDS011;11027;51.030;13.812;2024-01-30T13:36:32;22.58;;;14.23;;
21729;SDS011;11027;51.030;13.812;2024-01-30T13:38:57;23.73;;;15.00;;
21729;SDS011;11027;51.030;13.812;2024-01-30T13:41:22;28.65;;;15.65;;
21729;SDS011;11027;51.030;13.812;2024-01-30T13:43:48;24.45;;;14.75;;
21729;SDS011;11027;51.030;13.812;2024-01-30T13:46:13;24.45;;;15.68;;
21729;SDS011;11027;51.030;13.812;2024-01-30T13:48:39;25.98;;;14.88;;
21729;SDS011;11027;51.030;13.812;2024-01-30T13:51:04;24.80;;;15.20;;
21729;SDS011;11027;51.030;13.812;2024-01-30T13:53:30;25.83;;;14.77;;
21729;SDS011;11027;51.030;13.812;2024-01-30T13:55:55;22.40;;;13.98;;
21729;SDS011;11027;51.030;13.812;2024-01-30T13:58:20;27.80;;;14.82;;
21729;SDS011;11027;51.030;13.812;2024-01-30T14:00:45;23.02;;;14.52;;
21729;SDS011;11027;51.030;13.812;2024-01-30T14:03:11;22.92;;;13.88;;
21729;SDS011;11027;51.030;13.812;2024-01-30T14:05:36;25.58;;;14.57;;